Beernem, Belgium
Current Conditions -  °F | °C
As of 1:20 AM on Monday 24 Nov 2014 (Local Time) from EBOS Reporting Station
Light Rain Light Rain  
Wind Chill: 43°   Ceiling: 2800
Heat Index: 48°   Visibility: 6mi
Dew Point: 45°   Wind: 12mph
Humidity: 87%   Direction: 340°NNW
Pressure: 30.12"   Gusts: NA
Location:  51.14°N, 3.34°E
Report Text: EBOS 240020Z 34010KT 9000 -RA SCT010 BKN028 09/07 Q1020 TEMPO BKN010
Loading
Personal Weather Stations






























Interactive Weather Map New forecast layout! Learn more

10-Day Weather Forecast

Advertisements
Track Severe Weather on mobile